createdAt,value
2019-05-23T00:00:30.698Z,98539.45
2019-05-23T00:03:00.428Z,98548.33
2019-05-23T00:05:36.007Z,98551.91
2019-05-23T00:08:18.557Z,98553.23
2019-05-23T00:10:57.304Z,98555.77
2019-05-23T00:13:43.349Z,98553.84
2019-05-23T00:16:12.965Z,98550.50
2019-05-23T00:18:42.739Z,98555.50
2019-05-23T00:21:12.152Z,98560.90
2019-05-23T00:23:42.530Z,98557.70
2019-05-23T00:26:12.802Z,98553.52
2019-05-23T00:28:42.355Z,98561.55
2019-05-23T00:31:23.165Z,98548.14
2019-05-23T00:33:52.951Z,98551.39
2019-05-23T00:36:24.676Z,98542.93
2019-05-23T00:38:54.451Z,98543.73
2019-05-23T00:41:25.210Z,98543.28
2019-05-23T00:43:55.191Z,98540.70
2019-05-23T00:46:24.675Z,98540.61
2019-05-23T00:48:55.688Z,98533.94
2019-05-23T00:51:25.834Z,98534.54
2019-05-23T00:53:56.360Z,98537.61
2019-05-23T00:56:26.323Z,98542.17
2019-05-23T00:58:56.310Z,98539.53
2019-05-23T01:01:27.007Z,98543.53
2019-05-23T01:03:56.702Z,98547.77
2019-05-23T01:06:26.829Z,98551.94
2019-05-23T01:08:57.273Z,98547.62
2019-05-23T01:11:26.761Z,98547.67
2019-05-23T01:13:58.022Z,98542.34
2019-05-23T01:16:29.939Z,98544.19
2019-05-23T01:18:59.977Z,98542.97
2019-05-23T01:21:44.063Z,98545.37
2019-05-23T01:24:20.869Z,98547.48
2019-05-23T01:26:50.627Z,98548.84
2019-05-23T01:29:22.330Z,98555.08
2019-05-23T01:31:54.270Z,98559.23
2019-05-23T01:34:26.975Z,98561.95
2019-05-23T01:36:57.051Z,98557.88
2019-05-23T01:39:26.550Z,98560.20
2019-05-23T01:41:56.615Z,98561.72
2019-05-23T01:44:26.515Z,98562.67
2019-05-23T01:46:55.816Z,98557.23
2019-05-23T01:49:25.291Z,98567.75
2019-05-23T01:51:56.821Z,98564.78
2019-05-23T01:54:27.330Z,98563.95
2019-05-23T01:56:56.811Z,98569.81
2019-05-23T01:59:26.088Z,98567.41
2019-05-23T02:01:56.753Z,98570.30
2019-05-23T02:04:26.042Z,98570.30
2019-05-23T02:06:55.477Z,98568.28
2019-05-23T02:09:24.917Z,98572.61
2019-05-23T02:11:54.864Z,98570.77
2019-05-23T02:14:24.791Z,98573.33
2019-05-23T02:16:56.223Z,98566.28
2019-05-23T02:19:26.112Z,98572.13
2019-05-23T02:21:56.851Z,98571.02
2019-05-23T02:24:26.808Z,98576.17
2019-05-23T02:26:56.307Z,98575.95
2019-05-23T02:29:26.070Z,98570.49
2019-05-23T02:31:56.319Z,98573.27
2019-05-23T02:34:25.651Z,98568.94
2019-05-23T02:36:57.400Z,98573.42
2019-05-23T02:39:53.253Z,98568.55
2019-05-23T02:42:28.254Z,98567.34
2019-05-23T02:44:58.229Z,98562.38
2019-05-23T02:47:42.096Z,98568.63
2019-05-23T02:50:18.482Z,98572.36
2019-05-23T02:52:51.220Z,98566.47
2019-05-23T02:55:28.435Z,98562.46
2019-05-23T02:58:04.236Z,98566.73
2019-05-23T03:01:00.404Z,98560.33
2019-05-23T03:03:32.910Z,98554.06
2019-05-23T03:06:04.476Z,98555.84
2019-05-23T03:08:35.570Z,98559.68
2019-05-23T03:11:17.468Z,98558.72
2019-05-23T03:13:48.221Z,98558.56
2019-05-23T03:16:22.030Z,98553.28
2019-05-23T03:18:57.896Z,98552.23
2019-05-23T03:21:28.667Z,98553.59
2019-05-23T03:23:58.943Z,98554.72
2019-05-23T03:27:01.374Z,98551.53
2019-05-23T03:29:33.429Z,98557.36
2019-05-23T03:32:22.053Z,98554.56
2019-05-23T03:34:57.648Z,98557.29
2019-05-23T03:37:27.440Z,98555.87
2019-05-23T03:39:57.267Z,98551.23
2019-05-23T03:42:27.546Z,98552.02
2019-05-23T03:44:57.697Z,98552.19
2019-05-23T03:47:27.742Z,98556.50
2019-05-23T03:49:58.593Z,98558.58
2019-05-23T03:52:30.027Z,98554.02
2019-05-23T03:55:00.959Z,98551.45
2019-05-23T03:57:32.310Z,98557.38
2019-05-23T04:00:03.041Z,98552.42
2019-05-23T04:02:32.952Z,98555.63
2019-05-23T04:05:02.815Z,98558.10
2019-05-23T04:07:33.467Z,98561.61
2019-05-23T04:10:02.856Z,98565.69
2019-05-23T04:12:32.821Z,98569.77
2019-05-23T04:15:02.791Z,98570.09
2019-05-23T04:17:32.634Z,98566.41
2019-05-23T04:20:03.527Z,98567.86
2019-05-23T04:22:33.268Z,98565.59
2019-05-23T04:25:02.869Z,98561.36
2019-05-23T04:27:32.525Z,98568.00
2019-05-23T04:30:01.842Z,98568.64
2019-05-23T04:32:31.225Z,98568.97
2019-05-23T04:35:00.775Z,98570.73
2019-05-23T04:37:30.670Z,98570.24
2019-05-23T04:40:01.160Z,98572.48
2019-05-23T04:42:30.704Z,98573.05
2019-05-23T04:44:59.991Z,98568.54
2019-05-23T04:47:29.662Z,98565.50
2019-05-23T04:49:59.079Z,98571.26
2019-05-23T04:52:28.723Z,98577.42
2019-05-23T04:54:58.602Z,98574.46
2019-05-23T04:57:28.186Z,98580.33
2019-05-23T04:59:57.714Z,98578.73
2019-05-23T05:02:29.086Z,98581.82
2019-05-23T05:04:59.724Z,98584.81
2019-05-23T05:07:29.983Z,98585.92
2019-05-23T05:10:00.433Z,98589.11
2019-05-23T05:12:30.897Z,98592.02
2019-05-23T05:15:00.958Z,98592.07
2019-05-23T05:17:30.956Z,98594.31
2019-05-23T05:20:02.381Z,98596.47
2019-05-23T05:22:33.363Z,98591.80
2019-05-23T05:25:03.567Z,98595.83
2019-05-23T05:27:33.004Z,98592.91
2019-05-23T05:30:02.569Z,98594.19
2019-05-23T05:32:44.331Z,98596.81
2019-05-23T05:35:04.667Z,98600.97
2019-05-23T05:37:34.222Z,98600.84
2019-05-23T05:40:04.528Z,98599.39
2019-05-23T05:42:34.106Z,98595.72
2019-05-23T05:45:06.245Z,98601.08
2019-05-23T05:47:36.785Z,98598.59
2019-05-23T05:50:07.654Z,98606.53
2019-05-23T05:52:37.506Z,98598.42
2019-05-23T05:55:07.610Z,98611.33
2019-05-23T05:57:37.396Z,98612.65
2019-05-23T06:00:13.022Z,98616.83
2019-05-23T06:02:42.713Z,98621.76
2019-05-23T06:05:16.718Z,98612.98
2019-05-23T06:07:46.680Z,98626.09
2019-05-23T06:10:16.585Z,98624.03
2019-05-23T06:12:46.120Z,98620.46
2019-05-23T06:15:15.605Z,98623.13
2019-05-23T06:17:45.108Z,98623.66
2019-05-23T06:20:15.198Z,98621.86
2019-05-23T06:22:45.019Z,98623.06
2019-05-23T06:25:14.996Z,98618.97
2019-05-23T06:27:45.666Z,98621.23
2019-05-23T06:30:17.374Z,98619.88
2019-05-23T06:32:47.061Z,98617.23
2019-05-23T06:35:16.358Z,98613.23
2019-05-23T06:37:45.646Z,98617.12
2019-05-23T06:40:15.381Z,98606.36
2019-05-23T06:42:44.753Z,98616.63
2019-05-23T06:45:15.736Z,98612.56
2019-05-23T06:47:45.005Z,98613.76
2019-05-23T06:50:17.585Z,98607.97
2019-05-23T06:52:46.853Z,98609.70
2019-05-23T06:55:17.197Z,98607.29
2019-05-23T06:57:47.572Z,98607.61
2019-05-23T07:00:20.900Z,98615.03
2019-05-23T07:02:50.356Z,98609.73
2019-05-23T07:05:22.673Z,98611.05
2019-05-23T07:07:52.082Z,98609.47
2019-05-23T07:10:23.186Z,98608.45
2019-05-23T07:12:52.581Z,98613.25
2019-05-23T07:15:21.869Z,98606.77
2019-05-23T07:17:51.182Z,98604.48
2019-05-23T07:20:21.207Z,98610.59
2019-05-23T07:22:50.498Z,98608.31
2019-05-23T07:25:20.100Z,98606.86
2019-05-23T07:27:50.502Z,98609.33
2019-05-23T07:30:23.698Z,98608.27
2019-05-23T07:32:53.309Z,98602.38
2019-05-23T07:35:23.812Z,98610.17
2019-05-23T07:37:53.090Z,98610.67
2019-05-23T07:40:24.732Z,98601.04
2019-05-23T07:42:54.668Z,98601.31
2019-05-23T07:45:28.455Z,98602.02
2019-05-23T07:47:57.899Z,98602.06
2019-05-23T07:50:27.311Z,98600.05
2019-05-23T07:52:58.014Z,98596.45
2019-05-23T07:55:35.880Z,98591.27
2019-05-23T07:58:05.173Z,98592.97
2019-05-23T08:00:37.375Z,98586.95
2019-05-23T08:03:08.306Z,98587.27
2019-05-23T08:05:37.581Z,98582.10
2019-05-23T08:08:08.203Z,98590.60
2019-05-23T08:10:37.651Z,98588.79
2019-05-23T08:13:07.153Z,98583.43
2019-05-23T08:15:37.024Z,98586.03
2019-05-23T08:18:06.724Z,98589.11
2019-05-23T08:20:36.020Z,98583.77
2019-05-23T08:23:05.422Z,98584.34
2019-05-23T08:25:36.361Z,98578.75
2019-05-23T08:28:07.630Z,98580.95
2019-05-23T08:30:37.093Z,98579.42
2019-05-23T08:33:09.197Z,98578.09
2019-05-23T08:35:39.406Z,98578.42
2019-05-23T08:38:08.827Z,98568.91
2019-05-23T08:40:38.957Z,98572.25
2019-05-23T08:43:08.689Z,98570.94
2019-05-23T08:45:38.208Z,98569.80
2019-05-23T08:48:07.583Z,98564.98
2019-05-23T08:50:37.580Z,98564.91
2019-05-23T08:53:08.285Z,98573.37
2019-05-23T08:55:39.427Z,98568.64
2019-05-23T08:58:10.499Z,98569.70
2019-05-23T09:00:40.651Z,98568.14
2019-05-23T09:03:11.555Z,98573.27
2019-05-23T09:05:41.574Z,98569.90
2019-05-23T09:08:11.423Z,98567.11
2019-05-23T09:10:40.856Z,98568.69
2019-05-23T09:13:11.421Z,98564.17
2019-05-23T09:15:40.917Z,98568.93
2019-05-23T09:18:10.226Z,98555.38
2019-05-23T09:20:39.598Z,98555.51
2019-05-23T09:23:09.078Z,98549.09
2019-05-23T09:25:38.569Z,98546.59
2019-05-23T09:28:08.070Z,98538.74
2019-05-23T09:30:38.353Z,98542.30
2019-05-23T09:33:08.461Z,98537.36
2019-05-23T09:35:37.721Z,98537.58
2019-05-23T09:38:07.300Z,98540.47
2019-05-23T09:40:37.066Z,98538.97
2019-05-23T09:43:07.293Z,98537.42
2019-05-23T09:45:36.676Z,98533.30
2019-05-23T09:48:05.984Z,98533.60
2019-05-23T09:50:35.754Z,98535.60
2019-05-23T09:53:06.504Z,98530.06
2019-05-23T09:55:36.903Z,98526.17
2019-05-23T09:58:06.233Z,98521.66
2019-05-23T10:00:36.796Z,98523.97
2019-05-23T10:03:06.529Z,98519.09
2019-05-23T10:05:43.604Z,98520.52
2019-05-23T10:08:07.415Z,98529.66
2019-05-23T10:10:37.172Z,98528.77
2019-05-23T10:13:06.782Z,98527.72
2019-05-23T10:15:44.457Z,98529.30
2019-05-23T10:18:18.049Z,98518.45
2019-05-23T10:20:47.324Z,98511.45
2019-05-23T10:23:16.663Z,98512.47
2019-05-23T10:25:46.654Z,98501.66
2019-05-23T10:28:16.582Z,98501.95
2019-05-23T10:30:47.013Z,98497.17
2019-05-23T10:33:16.327Z,98505.35
2019-05-23T10:35:59.745Z,98502.78
2019-05-23T10:38:16.825Z,98502.80
2019-05-23T10:40:46.454Z,98494.11
2019-05-23T10:43:15.737Z,98493.03
2019-05-23T10:45:46.501Z,98486.97
2019-05-23T10:48:17.432Z,98485.06
2019-05-23T10:50:46.706Z,98480.14
2019-05-23T10:53:15.987Z,98473.74
2019-05-23T10:55:46.461Z,98475.92
2019-05-23T10:58:17.058Z,98467.08
2019-05-23T11:00:47.115Z,98471.81
2019-05-23T11:03:17.446Z,98468.97
2019-05-23T11:05:46.968Z,98467.52
2019-05-23T11:08:16.823Z,98459.49
2019-05-23T11:10:46.840Z,98461.91
2019-05-23T11:13:16.161Z,98461.20
2019-05-23T11:15:47.318Z,98454.20
2019-05-23T11:18:17.340Z,98447.40
2019-05-23T11:20:46.857Z,98448.69
2019-05-23T11:23:23.496Z,98450.09
2019-05-23T11:25:53.248Z,98448.02
2019-05-23T11:28:23.120Z,98443.10
2019-05-23T11:30:55.393Z,98441.11
2019-05-23T11:33:25.306Z,98435.95
2019-05-23T11:35:55.224Z,98439.63
2019-05-23T11:38:24.967Z,98440.95
2019-05-23T11:40:54.369Z,98435.97
2019-05-23T11:43:23.622Z,98435.75
2019-05-23T11:46:15.146Z,98427.70
2019-05-23T11:48:44.592Z,98442.05
2019-05-23T11:51:14.248Z,98432.03
2019-05-23T11:53:46.991Z,98427.55
2019-05-23T11:56:14.746Z,98425.33
2019-05-23T11:58:45.848Z,98422.78
2019-05-23T12:01:24.051Z,98428.89
2019-05-23T12:04:11.559Z,98425.48
2019-05-23T12:06:55.540Z,98418.25
2019-05-23T12:09:21.318Z,98408.52
2019-05-23T12:11:51.814Z,98412.50
2019-05-23T12:14:21.134Z,98414.66
2019-05-23T12:16:51.196Z,98413.70
2019-05-23T12:19:21.125Z,98404.86
2019-05-23T12:21:50.571Z,98403.44
2019-05-23T12:24:20.245Z,98405.05
2019-05-23T12:26:49.682Z,98395.41
2019-05-23T12:29:19.203Z,98389.41
2019-05-23T12:31:49.749Z,98393.53
2019-05-23T12:34:19.256Z,98391.88
2019-05-23T12:36:48.572Z,98389.72
2019-05-23T12:39:17.870Z,98386.35
2019-05-23T12:41:47.199Z,98382.43
2019-05-23T12:44:17.795Z,98381.56
2019-05-23T12:46:47.537Z,98384.13
2019-05-23T12:49:45.695Z,98377.42
2019-05-23T12:52:22.827Z,98369.78
2019-05-23T12:54:58.988Z,98368.83
2019-05-23T12:57:48.459Z,98373.08
2019-05-23T13:00:50.884Z,98368.27
2019-05-23T13:03:26.993Z,98368.64
2019-05-23T13:06:06.291Z,98370.04
2019-05-23T13:08:50.787Z,98373.77
2019-05-23T13:11:24.992Z,98364.53
2019-05-23T13:14:02.160Z,98365.31
2019-05-23T13:16:43.815Z,98365.06
2019-05-23T13:19:25.419Z,98361.25
2019-05-23T13:22:00.784Z,98354.25
2019-05-23T13:24:51.152Z,98350.78
2019-05-23T13:27:21.724Z,98345.23
2019-05-23T13:29:51.286Z,98350.08
2019-05-23T13:32:21.235Z,98346.55
2019-05-23T13:34:50.506Z,98345.83
2019-05-23T13:37:19.979Z,98345.19
2019-05-23T13:39:49.649Z,98341.55
2019-05-23T13:42:18.958Z,98339.78
2019-05-23T13:44:49.033Z,98333.93
2019-05-23T13:47:18.604Z,98333.61
2019-05-23T13:49:47.906Z,98325.97
2019-05-23T13:52:17.278Z,98328.81
2019-05-23T13:54:46.755Z,98328.15
2019-05-23T13:57:16.487Z,98323.22
2019-05-23T13:59:45.799Z,98318.59
2019-05-23T14:02:15.345Z,98324.39
2019-05-23T14:04:45.007Z,98332.80
2019-05-23T14:07:14.851Z,98321.83
2019-05-23T14:09:44.425Z,98326.16
2019-05-23T14:12:21.973Z,98321.63
2019-05-23T14:14:44.802Z,98319.00
2019-05-23T14:17:29.177Z,98311.32
2019-05-23T14:19:58.469Z,98312.28
2019-05-23T14:22:28.742Z,98311.78
2019-05-23T14:24:58.067Z,98306.52
2019-05-23T14:27:55.663Z,98310.48
2019-05-23T14:30:44.769Z,98304.62
2019-05-23T14:33:48.173Z,98308.50
2019-05-23T14:36:25.667Z,98308.31
2019-05-23T14:38:56.859Z,98309.63
2019-05-23T14:41:43.762Z,98303.27
2019-05-23T14:43:58.886Z,98308.39
2019-05-23T14:46:32.109Z,98303.97
2019-05-23T14:49:13.602Z,98307.30
2019-05-23T14:51:56.439Z,98305.28
2019-05-23T14:54:47.105Z,98302.23
2019-05-23T14:57:16.815Z,98301.29
2019-05-23T14:59:46.559Z,98296.36
2019-05-23T15:02:19.408Z,98299.05
2019-05-23T15:04:48.710Z,98299.27
2019-05-23T15:07:17.988Z,98295.09
2019-05-23T15:09:47.282Z,98294.33
2019-05-23T15:12:18.413Z,98291.84
2019-05-23T15:14:47.838Z,98291.07
2019-05-23T15:17:17.173Z,98292.42
2019-05-23T15:19:46.672Z,98288.95
2019-05-23T15:22:16.040Z,98285.14
2019-05-23T15:24:45.543Z,98281.78
2019-05-23T15:27:15.364Z,98284.66
2019-05-23T15:29:44.618Z,98275.77
2019-05-23T15:32:13.992Z,98272.98
2019-05-23T15:34:43.320Z,98272.83
2019-05-23T15:37:13.419Z,98273.36
2019-05-23T15:39:42.848Z,98273.45
2019-05-23T15:42:12.319Z,98268.95
2019-05-23T15:44:41.671Z,98260.91
2019-05-23T15:47:10.941Z,98263.48
2019-05-23T15:49:41.938Z,98258.38
2019-05-23T15:52:32.823Z,98252.16
2019-05-23T15:55:07.662Z,98256.28
2019-05-23T15:57:47.362Z,98255.03
2019-05-23T16:00:34.575Z,98257.81
2019-05-23T16:03:31.479Z,98250.45
2019-05-23T16:06:02.501Z,98245.78
2019-05-23T16:08:32.074Z,98248.09
2019-05-23T16:11:01.487Z,98244.81
2019-05-23T16:13:30.884Z,98239.13
2019-05-23T16:16:00.179Z,98236.08
2019-05-23T16:18:29.591Z,98233.00
2019-05-23T16:20:58.885Z,98236.38
2019-05-23T16:23:28.294Z,98231.92
2019-05-23T16:25:57.565Z,98225.61
2019-05-23T16:28:27.166Z,98231.22
2019-05-23T16:30:56.908Z,98233.75
2019-05-23T16:33:26.457Z,98230.43
2019-05-23T16:35:55.736Z,98221.73
2019-05-23T16:38:25.045Z,98227.61
2019-05-23T16:40:54.327Z,98232.33
2019-05-23T16:43:23.582Z,98234.33
2019-05-23T16:45:53.092Z,98233.95
2019-05-23T16:48:22.360Z,98237.62
2019-05-23T16:50:51.697Z,98238.64
2019-05-23T16:53:21.195Z,98232.08
2019-05-23T16:55:59.269Z,98236.23
2019-05-23T16:58:39.812Z,98238.02
2019-05-23T17:01:24.432Z,98239.61
2019-05-23T17:03:57.624Z,98236.44
2019-05-23T17:06:38.693Z,98238.83
2019-05-23T17:09:33.273Z,98230.52
2019-05-23T17:12:20.427Z,98226.17
2019-05-23T17:15:11.477Z,98226.95
2019-05-23T17:18:01.179Z,98233.69
2019-05-23T17:20:57.801Z,98235.05
2019-05-23T17:23:53.475Z,98221.16
2019-05-23T17:26:37.443Z,98229.77
2019-05-23T17:29:13.686Z,98221.88
2019-05-23T17:31:44.323Z,98227.80
2019-05-23T17:34:13.915Z,98227.19
2019-05-23T17:36:43.201Z,98224.84
2019-05-23T17:39:14.836Z,98228.17
2019-05-23T17:41:44.387Z,98227.42
2019-05-23T17:44:13.780Z,98224.66
2019-05-23T17:46:43.156Z,98225.03
2019-05-23T17:49:12.461Z,98225.03
2019-05-23T17:51:41.824Z,98222.66
2019-05-23T17:54:15.382Z,98222.66
2019-05-23T17:56:44.717Z,98220.70
2019-05-23T17:59:14.139Z,98220.70
2019-05-23T18:01:43.775Z,98214.02
2019-05-23T18:04:15.200Z,98220.15
2019-05-23T18:06:44.739Z,98215.61
2019-05-23T18:09:16.069Z,98216.39
2019-05-23T18:11:45.714Z,98220.38
2019-05-23T18:14:15.573Z,98217.21
2019-05-23T18:16:45.902Z,98217.77
2019-05-23T18:19:15.573Z,98217.61
2019-05-23T18:21:45.200Z,98214.84
2019-05-23T18:24:16.563Z,98220.56
2019-05-23T18:26:45.869Z,98222.36
2019-05-23T18:29:16.888Z,98214.84
2019-05-23T18:31:46.961Z,98225.69
2019-05-23T18:34:16.355Z,98225.69
2019-05-23T18:36:46.133Z,98217.59
2019-05-23T18:39:19.220Z,98219.16
2019-05-23T18:41:48.897Z,98216.44
2019-05-23T18:44:18.577Z,98217.95
2019-05-23T18:46:52.228Z,98216.38
2019-05-23T18:49:21.702Z,98212.81
2019-05-23T18:51:52.810Z,98215.19
2019-05-23T18:54:22.105Z,98218.72
2019-05-23T18:56:51.600Z,98220.45
2019-05-23T18:59:21.345Z,98232.45
2019-05-23T19:01:52.333Z,98229.64
2019-05-23T19:04:21.754Z,98225.27
2019-05-23T19:06:52.910Z,98228.20
2019-05-23T19:09:24.337Z,98235.67
2019-05-23T19:11:57.035Z,98239.41
2019-05-23T19:14:26.478Z,98239.16
2019-05-23T19:16:56.594Z,98241.00
2019-05-23T19:19:26.769Z,98242.17
2019-05-23T19:21:57.164Z,98245.78
2019-05-23T19:24:28.779Z,98250.50
2019-05-23T19:27:00.840Z,98252.09
2019-05-23T19:29:33.844Z,98243.28
2019-05-23T19:32:08.689Z,98245.27
2019-05-23T19:34:40.640Z,98248.69
2019-05-23T19:37:12.294Z,98244.93
2019-05-23T19:39:43.831Z,98246.27
2019-05-23T19:42:15.600Z,98245.03
2019-05-23T19:44:46.999Z,98247.16
2019-05-23T19:47:38.266Z,98244.49
2019-05-23T19:50:10.216Z,98242.91
2019-05-23T19:52:40.748Z,98241.58
2019-05-23T19:55:12.074Z,98243.06
2019-05-23T19:57:42.870Z,98237.64
2019-05-23T20:00:15.407Z,98241.35
2019-05-23T20:02:53.476Z,98238.81
2019-05-23T20:05:29.821Z,98235.64
2019-05-23T20:07:59.155Z,98242.16
2019-05-23T20:10:30.306Z,98242.30
2019-05-23T20:13:01.797Z,98240.73
2019-05-23T20:15:32.287Z,98241.09
2019-05-23T20:18:02.275Z,98242.47
2019-05-23T20:20:34.119Z,98238.98
2019-05-23T20:23:03.636Z,98238.45
2019-05-23T20:25:33.446Z,98243.64
2019-05-23T20:28:02.762Z,98241.55
2019-05-23T20:31:04.745Z,98238.35
2019-05-23T20:33:34.703Z,98236.11
2019-05-23T20:36:11.419Z,98239.13
2019-05-23T20:38:38.307Z,98232.25
2019-05-23T20:41:08.093Z,98230.48
2019-05-23T20:43:38.226Z,98233.23
2019-05-23T20:46:08.031Z,98232.12
2019-05-23T20:48:38.818Z,98225.36
2019-05-23T20:51:08.752Z,98222.66
2019-05-23T20:53:38.783Z,98220.39
2019-05-23T20:56:08.422Z,98222.72
2019-05-23T20:58:57.355Z,98222.66
2019-05-23T21:01:36.943Z,98219.86
2019-05-23T21:04:07.089Z,98221.70
2019-05-23T21:06:36.375Z,98214.62
2019-05-23T21:09:08.119Z,98220.97
2019-05-23T21:11:37.578Z,98224.90
2019-05-23T21:14:06.860Z,98225.30
2019-05-23T21:16:36.181Z,98225.61
2019-05-23T21:19:05.584Z,98224.29
2019-05-23T21:21:34.894Z,98222.38
2019-05-23T21:24:04.613Z,98223.91
2019-05-23T21:26:34.418Z,98229.41
2019-05-23T21:29:03.961Z,98227.30
2019-05-23T21:31:33.396Z,98228.03
2019-05-23T21:34:03.207Z,98223.82
2019-05-23T21:36:33.052Z,98234.69
2019-05-23T21:39:02.381Z,98236.91
2019-05-23T21:41:32.711Z,98237.22
2019-05-23T21:44:02.218Z,98235.84
2019-05-23T21:46:32.066Z,98243.16
2019-05-23T21:49:01.565Z,98243.64
2019-05-23T21:51:31.192Z,98246.04
2019-05-23T21:54:00.881Z,98241.71
2019-05-23T21:56:30.549Z,98248.62
2019-05-23T21:59:00.213Z,98243.05
2019-05-23T22:01:47.259Z,98238.52
2019-05-23T22:04:44.914Z,98242.98
2019-05-23T22:07:14.698Z,98238.86
2019-05-23T22:09:44.672Z,98232.13
2019-05-23T22:12:15.579Z,98228.91
2019-05-23T22:14:46.650Z,98229.24
2019-05-23T22:17:17.048Z,98228.92
2019-05-23T22:19:46.752Z,98227.33
2019-05-23T22:22:17.565Z,98230.44
2019-05-23T22:24:47.134Z,98224.87
2019-05-23T22:27:16.890Z,98221.34
2019-05-23T22:29:47.579Z,98218.23
2019-05-23T22:32:19.137Z,98218.31
2019-05-23T22:34:54.858Z,98218.31
2019-05-23T22:37:25.857Z,98214.51
2019-05-23T22:39:55.129Z,98213.19
2019-05-23T22:42:26.851Z,98218.45
2019-05-23T22:44:56.161Z,98213.78
2019-05-23T22:47:25.618Z,98212.05
2019-05-23T22:49:55.121Z,98213.72
2019-05-23T22:52:24.420Z,98213.07
2019-05-23T22:54:53.726Z,98209.52
2019-05-23T22:57:24.797Z,98210.76
2019-05-23T22:59:54.094Z,98208.73
2019-05-23T23:02:23.392Z,98210.76
2019-05-23T23:04:52.893Z,98206.44
2019-05-23T23:07:22.272Z,98211.97
2019-05-23T23:09:51.542Z,98209.45
2019-05-23T23:12:20.829Z,98212.33
2019-05-23T23:14:50.138Z,98205.05
2019-05-23T23:17:20.016Z,98209.15
2019-05-23T23:19:49.289Z,98208.58
2019-05-23T23:22:20.089Z,98204.88
2019-05-23T23:24:49.470Z,98201.13
2019-05-23T23:27:18.778Z,98198.30
2019-05-23T23:29:49.715Z,98202.39
2019-05-23T23:32:19.038Z,98209.02
2019-05-23T23:34:48.306Z,98201.15
2019-05-23T23:37:17.615Z,98196.75
2019-05-23T23:39:46.887Z,98197.89
2019-05-23T23:42:16.377Z,98203.66
2019-05-23T23:44:44.916Z,98196.83
2019-05-23T23:47:32.833Z,98201.23
2019-05-23T23:50:19.701Z,98204.85
2019-05-23T23:53:07.474Z,98195.09
2019-05-23T23:55:54.612Z,98201.05
2019-05-23T23:58:22.978Z,98194.02
